sensor_id;sensor_type;location;lat;lon;timestamp;pressure;altitude;pressure_sealevel;temperature;humidity
19777;BME280;10047;42.490;26.012;2023-03-20T00:00:20;98146.09;;;5.87;100.00
19777;BME280;10047;42.490;26.012;2023-03-20T00:02:47;98148.88;;;6.01;100.00
19777;BME280;10047;42.490;26.012;2023-03-20T00:05:20;98152.63;;;6.12;100.00
19777;BME280;10047;42.490;26.012;2023-03-20T00:07:48;98144.47;;;5.86;100.00
19777;BME280;10047;42.490;26.012;2023-03-20T00:10:14;98120.38;;;5.99;100.00
19777;BME280;10047;42.490;26.012;2023-03-20T00:12:40;98171.47;;;6.04;100.00
19777;BME280;10047;42.490;26.012;2023-03-20T00:15:23;98127.56;;;5.66;100.00
19777;BME280;10047;42.490;26.012;2023-03-20T00:17:50;98174.88;;;6.03;100.00
19777;BME280;10047;42.490;26.012;2023-03-20T00:20:16;98158.63;;;5.44;100.00
19777;BME280;10047;42.490;26.012;2023-03-20T00:22:42;98191.66;;;5.81;100.00
19777;BME280;10047;42.490;26.012;2023-03-20T00:25:12;98205.38;;;5.51;100.00
19777;BME280;10047;42.490;26.012;2023-03-20T00:27:39;98169.59;;;5.19;100.00
19777;BME280;10047;42.490;26.012;2023-03-20T00:30:28;98192.56;;;5.57;100.00
19777;BME280;10047;42.490;26.012;2023-03-20T00:32:56;98097.88;;;5.29;100.00
19777;BME280;10047;42.490;26.012;2023-03-20T00:35:27;98136.47;;;4.84;100.00
19777;BME280;10047;42.490;26.012;2023-03-20T00:37:55;98128.03;;;5.31;100.00
19777;BME280;10047;42.490;26.012;2023-03-20T00:40:21;98173.19;;;5.59;100.00
19777;BME280;10047;42.490;26.012;2023-03-20T00:42:57;98128.19;;;5.50;100.00
19777;BME280;10047;42.490;26.012;2023-03-20T00:45:23;98148.72;;;5.39;100.00
19777;BME280;10047;42.490;26.012;2023-03-20T00:47:49;98120.09;;;5.63;100.00
19777;BME280;10047;42.490;26.012;2023-03-20T00:50:23;98200.31;;;5.52;100.00
19777;BME280;10047;42.490;26.012;2023-03-20T00:52:50;98155.25;;;5.21;100.00
19777;BME280;10047;42.490;26.012;2023-03-20T00:55:17;98177.41;;;5.35;100.00
19777;BME280;10047;42.490;26.012;2023-03-20T00:57:47;98165.38;;;5.43;100.00
19777;BME280;10047;42.490;26.012;2023-03-20T01:00:42;98219.41;;;5.58;100.00
19777;BME280;10047;42.490;26.012;2023-03-20T01:03:19;98188.22;;;5.39;100.00
19777;BME280;10047;42.490;26.012;2023-03-20T01:05:45;98183.44;;;5.08;100.00
19777;BME280;10047;42.490;26.012;2023-03-20T01:08:16;98144.59;;;5.60;100.00
19777;BME280;10047;42.490;26.012;2023-03-20T01:10:43;98134.00;;;5.95;100.00
19777;BME280;10047;42.490;26.012;2023-03-20T01:13:18;98137.44;;;5.92;100.00
19777;BME280;10047;42.490;26.012;2023-03-20T01:15:44;98138.34;;;5.91;100.00
19777;BME280;10047;42.490;26.012;2023-03-20T01:18:15;98183.19;;;5.83;100.00
19777;BME280;10047;42.490;26.012;2023-03-20T01:20:41;98194.88;;;5.63;100.00
19777;BME280;10047;42.490;26.012;2023-03-20T01:23:06;98178.88;;;5.64;100.00
19777;BME280;10047;42.490;26.012;2023-03-20T01:25:32;98129.06;;;5.70;100.00
19777;BME280;10047;42.490;26.012;2023-03-20T01:28:11;98185.13;;;5.98;100.00
19777;BME280;10047;42.490;26.012;2023-03-20T01:30:37;98170.69;;;5.12;100.00
19777;BME280;10047;42.490;26.012;2023-03-20T01:33:11;98226.84;;;5.61;100.00
19777;BME280;10047;42.490;26.012;2023-03-20T01:35:38;98203.56;;;5.33;100.00
19777;BME280;10047;42.490;26.012;2023-03-20T01:38:10;98266.97;;;5.44;100.00
19777;BME280;10047;42.490;26.012;2023-03-20T01:41:02;98279.78;;;5.61;100.00
19777;BME280;10047;42.490;26.012;2023-03-20T01:43:29;98320.19;;;5.10;100.00
19777;BME280;10047;42.490;26.012;2023-03-20T01:51:14;98333.22;;;5.21;100.00
19777;BME280;10047;42.490;26.012;2023-03-20T01:53:39;98376.34;;;5.38;100.00
19777;BME280;10047;42.490;26.012;2023-03-20T01:56:05;98404.19;;;5.07;100.00
19777;BME280;10047;42.490;26.012;2023-03-20T01:58:34;98477.91;;;5.12;100.00
19777;BME280;10047;42.490;26.012;2023-03-20T02:01:02;98460.13;;;5.17;100.00
19777;BME280;10047;42.490;26.012;2023-03-20T02:03:29;98488.59;;;5.19;100.00
19777;BME280;10047;42.490;26.012;2023-03-20T02:05:55;98480.75;;;5.02;100.00
19777;BME280;10047;42.490;26.012;2023-03-20T02:08:24;98499.97;;;4.46;100.00
19777;BME280;10047;42.490;26.012;2023-03-20T02:10:52;98558.47;;;4.83;100.00
19777;BME280;10047;42.490;26.012;2023-03-20T02:13:19;98557.00;;;5.05;100.00
19777;BME280;10047;42.490;26.012;2023-03-20T02:16:05;98512.84;;;4.66;100.00
19777;BME280;10047;42.490;26.012;2023-03-20T02:18:32;98580.72;;;4.68;100.00
19777;BME280;10047;42.490;26.012;2023-03-20T02:26:36;98642.63;;;5.05;100.00
19777;BME280;10047;42.490;26.012;2023-03-20T02:45:28;98788.06;;;4.62;100.00
19777;BME280;10047;42.490;26.012;2023-03-20T02:56:10;98911.47;;;4.56;100.00
19777;BME280;10047;42.490;26.012;2023-03-20T02:58:54;98967.28;;;4.35;100.00
19777;BME280;10047;42.490;26.012;2023-03-20T03:01:34;99028.56;;;4.31;100.00
19777;BME280;10047;42.490;26.012;2023-03-20T03:04:16;99150.03;;;4.36;100.00
19777;BME280;10047;42.490;26.012;2023-03-20T03:06:46;99134.81;;;4.45;100.00
19777;BME280;10047;42.490;26.012;2023-03-20T03:09:23;99155.69;;;4.49;100.00
19777;BME280;10047;42.490;26.012;2023-03-20T03:12:03;99221.53;;;4.75;100.00
19777;BME280;10047;42.490;26.012;2023-03-20T03:14:43;99231.53;;;4.79;100.00
19777;BME280;10047;42.490;26.012;2023-03-20T03:17:12;99184.13;;;4.55;100.00
19777;BME280;10047;42.490;26.012;2023-03-20T03:19:41;99206.28;;;4.32;100.00
19777;BME280;10047;42.490;26.012;2023-03-20T03:22:08;99209.13;;;4.11;100.00
19777;BME280;10047;42.490;26.012;2023-03-20T03:24:36;99250.94;;;4.16;100.00
19777;BME280;10047;42.490;26.012;2023-03-20T03:27:11;99252.06;;;3.97;100.00
19777;BME280;10047;42.490;26.012;2023-03-20T03:29:38;99295.22;;;4.29;100.00
19777;BME280;10047;42.490;26.012;2023-03-20T03:32:05;99287.00;;;4.17;100.00
19777;BME280;10047;42.490;26.012;2023-03-20T03:34:32;99292.03;;;4.17;100.00
19777;BME280;10047;42.490;26.012;2023-03-20T03:37:06;99342.91;;;4.37;100.00
19777;BME280;10047;42.490;26.012;2023-03-20T03:39:40;99347.63;;;4.58;100.00
19777;BME280;10047;42.490;26.012;2023-03-20T03:42:23;99250.53;;;3.86;100.00
19777;BME280;10047;42.490;26.012;2023-03-20T03:47:45;99338.88;;;4.25;100.00
19777;BME280;10047;42.490;26.012;2023-03-20T03:50:45;99350.91;;;4.01;100.00
19777;BME280;10047;42.490;26.012;2023-03-20T03:53:16;99376.25;;;3.84;100.00
19777;BME280;10047;42.490;26.012;2023-03-20T03:55:47;99390.75;;;3.55;100.00
19777;BME280;10047;42.490;26.012;2023-03-20T03:58:50;99404.13;;;3.59;100.00
19777;BME280;10047;42.490;26.012;2023-03-20T04:01:19;99362.63;;;3.20;100.00
19777;BME280;10047;42.490;26.012;2023-03-20T04:03:48;99336.25;;;2.67;100.00
19777;BME280;10047;42.490;26.012;2023-03-20T04:06:15;99444.53;;;3.36;100.00
19777;BME280;10047;42.490;26.012;2023-03-20T04:08:42;99389.56;;;3.00;100.00
19777;BME280;10047;42.490;26.012;2023-03-20T04:11:19;99385.63;;;2.67;100.00
19777;BME280;10047;42.490;26.012;2023-03-20T04:13:46;99487.56;;;2.83;100.00
19777;BME280;10047;42.490;26.012;2023-03-20T04:16:12;99509.31;;;2.78;100.00
19777;BME280;10047;42.490;26.012;2023-03-20T04:18:39;99517.59;;;2.97;100.00
19777;BME280;10047;42.490;26.012;2023-03-20T04:21:05;99487.41;;;3.09;100.00
19777;BME280;10047;42.490;26.012;2023-03-20T04:23:32;99503.56;;;2.56;100.00
19777;BME280;10047;42.490;26.012;2023-03-20T04:25:58;99566.06;;;3.12;100.00
19777;BME280;10047;42.490;26.012;2023-03-20T04:28:23;99557.00;;;2.72;100.00
19777;BME280;10047;42.490;26.012;2023-03-20T04:30:57;99624.75;;;2.81;100.00
19777;BME280;10047;42.490;26.012;2023-03-20T04:33:23;99609.78;;;1.97;100.00
19777;BME280;10047;42.490;26.012;2023-03-20T04:35:49;99758.56;;;2.29;100.00
19777;BME280;10047;42.490;26.012;2023-03-20T04:38:16;99772.78;;;3.07;100.00
19777;BME280;10047;42.490;26.012;2023-03-20T04:40:43;99863.09;;;2.60;100.00
19777;BME280;10047;42.490;26.012;2023-03-20T04:43:08;99765.25;;;2.33;100.00
19777;BME280;10047;42.490;26.012;2023-03-20T04:45:34;99817.97;;;2.75;100.00
19777;BME280;10047;42.490;26.012;2023-03-20T04:47:59;99851.38;;;2.41;100.00
19777;BME280;10047;42.490;26.012;2023-03-20T04:50:25;99848.88;;;2.47;100.00
19777;BME280;10047;42.490;26.012;2023-03-20T04:52:50;99871.38;;;2.32;100.00
19777;BME280;10047;42.490;26.012;2023-03-20T04:55:16;99886.53;;;2.59;100.00
19777;BME280;10047;42.490;26.012;2023-03-20T04:57:41;99943.47;;;2.83;100.00
19777;BME280;10047;42.490;26.012;2023-03-20T05:00:07;99909.03;;;2.35;100.00
19777;BME280;10047;42.490;26.012;2023-03-20T05:02:32;99981.84;;;2.53;100.00
19777;BME280;10047;42.490;26.012;2023-03-20T05:04:58;99987.03;;;3.03;100.00
19777;BME280;10047;42.490;26.012;2023-03-20T05:07:23;99989.53;;;3.12;100.00
19777;BME280;10047;42.490;26.012;2023-03-20T05:09:49;99960.13;;;2.64;100.00
19777;BME280;10047;42.490;26.012;2023-03-20T05:12:15;99967.75;;;2.85;100.00
19777;BME280;10047;42.490;26.012;2023-03-20T05:14:40;99979.47;;;2.98;100.00
19777;BME280;10047;42.490;26.012;2023-03-20T05:17:06;99984.34;;;2.56;100.00
19777;BME280;10047;42.490;26.012;2023-03-20T05:19:31;100043.81;;;2.75;100.00
19777;BME280;10047;42.490;26.012;2023-03-20T05:21:56;100005.16;;;2.37;100.00
19777;BME280;10047;42.490;26.012;2023-03-20T05:24:22;100078.22;;;3.03;100.00
19777;BME280;10047;42.490;26.012;2023-03-20T05:26:47;100051.44;;;2.99;100.00
19777;BME280;10047;42.490;26.012;2023-03-20T05:29:13;100094.31;;;3.75;100.00
19777;BME280;10047;42.490;26.012;2023-03-20T05:31:38;100109.38;;;3.53;100.00
19777;BME280;10047;42.490;26.012;2023-03-20T05:34:04;100110.25;;;3.78;100.00
19777;BME280;10047;42.490;26.012;2023-03-20T05:36:30;100120.31;;;3.81;100.00
19777;BME280;10047;42.490;26.012;2023-03-20T05:38:56;100121.94;;;3.67;100.00
19777;BME280;10047;42.490;26.012;2023-03-20T05:41:22;100124.50;;;3.85;100.00
19777;BME280;10047;42.490;26.012;2023-03-20T05:43:47;100151.38;;;4.12;100.00
19777;BME280;10047;42.490;26.012;2023-03-20T05:46:13;100141.22;;;3.64;100.00
19777;BME280;10047;42.490;26.012;2023-03-20T05:48:38;100154.72;;;4.33;100.00
19777;BME280;10047;42.490;26.012;2023-03-20T05:51:04;100130.38;;;4.07;100.00
19777;BME280;10047;42.490;26.012;2023-03-20T05:53:30;100102.59;;;3.28;100.00
19777;BME280;10047;42.490;26.012;2023-03-20T05:55:55;100181.53;;;4.07;100.00
19777;BME280;10047;42.490;26.012;2023-03-20T05:58:21;100121.16;;;4.01;100.00
19777;BME280;10047;42.490;26.012;2023-03-20T06:00:46;100167.31;;;4.33;100.00
19777;BME280;10047;42.490;26.012;2023-03-20T06:03:12;100173.94;;;4.90;100.00
19777;BME280;10047;42.490;26.012;2023-03-20T06:05:37;100150.38;;;5.14;100.00
19777;BME280;10047;42.490;26.012;2023-03-20T06:08:03;100149.53;;;5.15;100.00
19777;BME280;10047;42.490;26.012;2023-03-20T06:10:29;100058.84;;;5.12;100.00
19777;BME280;10047;42.490;26.012;2023-03-20T06:12:55;100074.53;;;5.58;100.00
19777;BME280;10047;42.490;26.012;2023-03-20T06:15:21;100055.78;;;5.98;100.00
19777;BME280;10047;42.490;26.012;2023-03-20T06:17:47;99999.38;;;6.05;100.00
19777;BME280;10047;42.490;26.012;2023-03-20T06:20:12;100005.47;;;6.65;100.00
19777;BME280;10047;42.490;26.012;2023-03-20T06:22:38;99999.59;;;7.25;100.00
19777;BME280;10047;42.490;26.012;2023-03-20T06:25:05;99904.69;;;6.45;100.00
19777;BME280;10047;42.490;26.012;2023-03-20T06:27:30;99911.22;;;7.18;100.00
19777;BME280;10047;42.490;26.012;2023-03-20T06:29:56;99783.34;;;7.08;100.00
19777;BME280;10047;42.490;26.012;2023-03-20T06:32:21;99739.78;;;7.39;100.00
19777;BME280;10047;42.490;26.012;2023-03-20T06:34:47;99654.81;;;6.88;100.00
19777;BME280;10047;42.490;26.012;2023-03-20T06:37:12;99632.50;;;7.89;100.00
19777;BME280;10047;42.490;26.012;2023-03-20T06:39:38;99542.44;;;7.45;100.00
19777;BME280;10047;42.490;26.012;2023-03-20T06:42:03;99426.84;;;8.45;100.00
19777;BME280;10047;42.490;26.012;2023-03-20T06:44:28;99328.34;;;8.36;100.00
19777;BME280;10047;42.490;26.012;2023-03-20T06:46:54;99274.34;;;8.07;100.00
19777;BME280;10047;42.490;26.012;2023-03-20T06:49:20;99188.69;;;8.21;100.00
19777;BME280;10047;42.490;26.012;2023-03-20T06:51:46;99102.72;;;8.68;100.00
19777;BME280;10047;42.490;26.012;2023-03-20T06:54:12;98982.19;;;8.63;100.00
19777;BME280;10047;42.490;26.012;2023-03-20T06:56:38;98953.38;;;9.72;100.00
19777;BME280;10047;42.490;26.012;2023-03-20T06:59:03;99014.03;;;8.92;100.00
19777;BME280;10047;42.490;26.012;2023-03-20T07:01:28;99008.69;;;8.76;100.00
19777;BME280;10047;42.490;26.012;2023-03-20T07:03:54;98960.13;;;10.32;100.00
19777;BME280;10047;42.490;26.012;2023-03-20T07:06:20;98925.69;;;10.45;100.00
19777;BME280;10047;42.490;26.012;2023-03-20T07:08:45;98931.34;;;9.73;100.00
19777;BME280;10047;42.490;26.012;2023-03-20T07:11:11;98890.94;;;10.27;100.00
19777;BME280;10047;42.490;26.012;2023-03-20T07:13:37;98802.81;;;10.65;100.00
19777;BME280;10047;42.490;26.012;2023-03-20T07:16:04;99024.75;;;9.43;100.00
19777;BME280;10047;42.490;26.012;2023-03-20T07:18:29;98997.66;;;9.85;100.00
19777;BME280;10047;42.490;26.012;2023-03-20T07:21:04;99001.34;;;9.98;100.00
19777;BME280;10047;42.490;26.012;2023-03-20T07:23:31;99002.03;;;9.61;100.00
19777;BME280;10047;42.490;26.012;2023-03-20T07:25:58;98943.34;;;10.85;100.00
19777;BME280;10047;42.490;26.012;2023-03-20T07:28:27;99000.47;;;9.99;100.00
19777;BME280;10047;42.490;26.012;2023-03-20T07:30:53;98941.50;;;11.24;100.00
19777;BME280;10047;42.490;26.012;2023-03-20T07:33:19;98986.00;;;10.41;100.00
19777;BME280;10047;42.490;26.012;2023-03-20T07:35:45;98906.03;;;11.56;100.00
19777;BME280;10047;42.490;26.012;2023-03-20T07:38:10;98948.78;;;10.00;100.00
19777;BME280;10047;42.490;26.012;2023-03-20T07:40:36;98964.22;;;9.96;100.00
19777;BME280;10047;42.490;26.012;2023-03-20T07:43:02;99022.44;;;10.40;100.00
19777;BME280;10047;42.490;26.012;2023-03-20T07:45:27;98941.44;;;11.07;100.00
19777;BME280;10047;42.490;26.012;2023-03-20T07:47:52;98923.22;;;10.81;100.00
19777;BME280;10047;42.490;26.012;2023-03-20T07:50:18;98926.31;;;11.57;100.00
19777;BME280;10047;42.490;26.012;2023-03-20T07:52:47;98864.09;;;12.12;100.00
19777;BME280;10047;42.490;26.012;2023-03-20T07:55:14;98781.47;;;12.93;100.00
19777;BME280;10047;42.490;26.012;2023-03-20T07:57:39;98703.94;;;12.52;100.00
19777;BME280;10047;42.490;26.012;2023-03-20T08:00:06;98896.78;;;9.90;100.00
19777;BME280;10047;42.490;26.012;2023-03-20T08:02:33;98954.19;;;9.73;100.00
19777;BME280;10047;42.490;26.012;2023-03-20T08:04:59;98846.59;;;11.57;100.00
19777;BME280;10047;42.490;26.012;2023-03-20T08:07:24;98843.22;;;11.56;100.00
19777;BME280;10047;42.490;26.012;2023-03-20T08:09:50;98864.66;;;12.02;100.00
19777;BME280;10047;42.490;26.012;2023-03-20T08:12:16;98820.97;;;12.25;100.00
19777;BME280;10047;42.490;26.012;2023-03-20T08:14:42;98728.81;;;12.33;100.00
19777;BME280;10047;42.490;26.012;2023-03-20T08:17:08;98699.16;;;11.69;100.00
19777;BME280;10047;42.490;26.012;2023-03-20T08:19:34;98722.34;;;11.96;100.00
19777;BME280;10047;42.490;26.012;2023-03-20T08:22:00;98730.97;;;12.09;100.00
19777;BME280;10047;42.490;26.012;2023-03-20T08:24:26;98754.22;;;11.22;100.00
19777;BME280;10047;42.490;26.012;2023-03-20T08:26:51;98673.28;;;12.08;100.00
19777;BME280;10047;42.490;26.012;2023-03-20T08:29:16;98558.84;;;12.77;100.00
19777;BME280;10047;42.490;26.012;2023-03-20T08:31:43;98721.19;;;11.86;100.00
19777;BME280;10047;42.490;26.012;2023-03-20T08:34:09;98704.31;;;12.14;100.00
19777;BME280;10047;42.490;26.012;2023-03-20T08:36:35;98682.06;;;12.18;100.00
19777;BME280;10047;42.490;26.012;2023-03-20T08:39:00;98725.03;;;11.77;100.00
19777;BME280;10047;42.490;26.012;2023-03-20T08:41:26;98770.31;;;11.22;100.00
19777;BME280;10047;42.490;26.012;2023-03-20T08:43:51;98669.59;;;11.98;100.00
19777;BME280;10047;42.490;26.012;2023-03-20T08:46:16;98727.97;;;12.48;100.00
19777;BME280;10047;42.490;26.012;2023-03-20T08:48:42;98595.38;;;13.60;100.00
19777;BME280;10047;42.490;26.012;2023-03-20T08:51:07;98601.25;;;12.64;100.00
19777;BME280;10047;42.490;26.012;2023-03-20T08:53:33;98641.88;;;12.67;100.00
19777;BME280;10047;42.490;26.012;2023-03-20T08:55:59;98574.19;;;12.33;100.00
19777;BME280;10047;42.490;26.012;2023-03-20T08:58:26;98540.25;;;12.75;100.00
19777;BME280;10047;42.490;26.012;2023-03-20T09:00:53;98515.31;;;13.74;100.00
19777;BME280;10047;42.490;26.012;2023-03-20T09:03:19;98465.38;;;13.31;100.00
19777;BME280;10047;42.490;26.012;2023-03-20T09:05:49;98423.56;;;13.71;100.00
19777;BME280;10047;42.490;26.012;2023-03-20T09:08:16;98382.81;;;13.69;100.00
19777;BME280;10047;42.490;26.012;2023-03-20T09:10:42;98315.63;;;14.18;100.00
19777;BME280;10047;42.490;26.012;2023-03-20T09:13:08;98419.66;;;12.87;100.00
19777;BME280;10047;42.490;26.012;2023-03-20T09:15:34;98350.13;;;13.87;100.00
19777;BME280;10047;42.490;26.012;2023-03-20T09:18:00;98426.94;;;13.71;100.00
19777;BME280;10047;42.490;26.012;2023-03-20T09:20:25;98406.19;;;13.88;100.00
19777;BME280;10047;42.490;26.012;2023-03-20T09:22:50;98301.50;;;14.25;100.00
19777;BME280;10047;42.490;26.012;2023-03-20T09:25:16;98398.44;;;13.77;100.00
19777;BME280;10047;42.490;26.012;2023-03-20T09:27:41;98397.41;;;14.05;100.00
19777;BME280;10047;42.490;26.012;2023-03-20T09:30:08;98443.50;;;12.17;100.00
19777;BME280;10047;42.490;26.012;2023-03-20T09:32:35;98531.06;;;11.86;100.00
19777;BME280;10047;42.490;26.012;2023-03-20T09:35:01;98510.94;;;13.37;100.00
19777;BME280;10047;42.490;26.012;2023-03-20T09:37:27;98348.25;;;14.63;100.00
19777;BME280;10047;42.490;26.012;2023-03-20T09:39:53;98399.56;;;13.99;100.00
19777;BME280;10047;42.490;26.012;2023-03-20T09:45:18;98376.06;;;14.31;100.00
19777;BME280;10047;42.490;26.012;2023-03-20T09:50:41;98350.25;;;14.70;100.00
19777;BME280;10047;42.490;26.012;2023-03-20T09:55:41;98296.19;;;16.00;100.00
19777;BME280;10047;42.490;26.012;2023-03-20T09:58:33;98353.03;;;15.26;100.00
19777;BME280;10047;42.490;26.012;2023-03-20T10:01:00;98378.03;;;13.77;100.00
19777;BME280;10047;42.490;26.012;2023-03-20T10:06:11;98317.53;;;14.27;100.00
19777;BME280;10047;42.490;26.012;2023-03-20T10:08:38;98329.59;;;14.25;100.00
19777;BME280;10047;42.490;26.012;2023-03-20T10:13:46;98332.66;;;15.24;100.00
19777;BME280;10047;42.490;26.012;2023-03-20T10:19:06;98345.22;;;15.27;100.00
19777;BME280;10047;42.490;26.012;2023-03-20T10:21:43;98293.13;;;13.74;100.00
19777;BME280;10047;42.490;26.012;2023-03-20T10:24:33;98314.16;;;14.86;100.00
19777;BME280;10047;42.490;26.012;2023-03-20T10:27:13;98245.69;;;15.69;100.00
19777;BME280;10047;42.490;26.012;2023-03-20T10:40:49;98271.03;;;16.59;100.00
19777;BME280;10047;42.490;26.012;2023-03-20T10:43:28;98354.56;;;16.29;100.00
19777;BME280;10047;42.490;26.012;2023-03-20T10:46:04;98307.06;;;15.35;100.00
19777;BME280;10047;42.490;26.012;2023-03-20T10:48:45;98294.34;;;15.57;100.00
19777;BME280;10047;42.490;26.012;2023-03-20T10:51:29;98311.66;;;16.20;100.00
19777;BME280;10047;42.490;26.012;2023-03-20T10:54:01;98375.97;;;15.62;100.00
19777;BME280;10047;42.490;26.012;2023-03-20T10:56:39;98258.13;;;16.49;100.00
19777;BME280;10047;42.490;26.012;2023-03-20T11:00:03;98313.13;;;16.45;100.00
19777;BME280;10047;42.490;26.012;2023-03-20T11:02:11;98398.91;;;16.85;100.00
19777;BME280;10047;42.490;26.012;2023-03-20T11:04:37;98323.38;;;16.56;100.00
19777;BME280;10047;42.490;26.012;2023-03-20T11:09:40;98380.66;;;16.34;100.00
19777;BME280;10047;42.490;26.012;2023-03-20T11:12:16;98424.63;;;16.52;100.00
19777;BME280;10047;42.490;26.012;2023-03-20T11:14:43;98383.81;;;15.94;100.00
19777;BME280;10047;42.490;26.012;2023-03-20T11:17:09;98377.00;;;16.81;100.00
19777;BME280;10047;42.490;26.012;2023-03-20T11:19:39;98465.41;;;16.88;100.00
19777;BME280;10047;42.490;26.012;2023-03-20T11:22:21;98398.97;;;16.63;100.00
19777;BME280;10047;42.490;26.012;2023-03-20T11:24:53;98365.69;;;16.73;100.00
19777;BME280;10047;42.490;26.012;2023-03-20T11:27:29;98389.78;;;16.50;100.00
19777;BME280;10047;42.490;26.012;2023-03-20T11:29:56;98351.06;;;17.37;100.00
19777;BME280;10047;42.490;26.012;2023-03-20T11:32:41;98425.84;;;17.75;100.00
19777;BME280;10047;42.490;26.012;2023-03-20T11:35:18;98486.91;;;17.30;100.00
19777;BME280;10047;42.490;26.012;2023-03-20T11:37:47;98407.03;;;17.65;100.00
19777;BME280;10047;42.490;26.012;2023-03-20T11:40:24;98467.56;;;17.47;100.00
19777;BME280;10047;42.490;26.012;2023-03-20T11:43:07;98437.84;;;17.33;100.00
19777;BME280;10047;42.490;26.012;2023-03-20T11:45:39;98371.13;;;17.43;100.00
19777;BME280;10047;42.490;26.012;2023-03-20T11:48:21;98335.28;;;16.57;100.00
19777;BME280;10047;42.490;26.012;2023-03-20T11:50:59;98432.56;;;18.07;100.00
19777;BME280;10047;42.490;26.012;2023-03-20T11:53:39;98469.56;;;17.95;100.00
19777;BME280;10047;42.490;26.012;2023-03-20T11:56:10;98425.09;;;18.35;100.00
19777;BME280;10047;42.490;26.012;2023-03-20T11:59:03;98418.25;;;18.45;100.00
19777;BME280;10047;42.490;26.012;2023-03-20T12:04:30;98484.69;;;16.72;100.00
19777;BME280;10047;42.490;26.012;2023-03-20T12:09:50;98430.88;;;17.56;100.00
19777;BME280;10047;42.490;26.012;2023-03-20T12:15:12;98421.41;;;17.56;100.00
19777;BME280;10047;42.490;26.012;2023-03-20T12:20:52;98436.47;;;17.61;100.00
19777;BME280;10047;42.490;26.012;2023-03-20T12:23:47;98412.53;;;17.28;100.00
19777;BME280;10047;42.490;26.012;2023-03-20T12:26:19;98349.34;;;17.88;100.00
19777;BME280;10047;42.490;26.012;2023-03-20T12:36:41;98377.81;;;18.26;100.00
19777;BME280;10047;42.490;26.012;2023-03-20T12:39:16;98336.88;;;17.83;100.00
19777;BME280;10047;42.490;26.012;2023-03-20T12:49:56;98337.47;;;17.25;100.00
19777;BME280;10047;42.490;26.012;2023-03-20T13:01:19;98324.59;;;18.36;100.00
19777;BME280;10047;42.490;26.012;2023-03-20T13:06:52;98383.25;;;18.42;100.00
19777;BME280;10047;42.490;26.012;2023-03-20T13:12:07;98390.13;;;18.72;100.00
19777;BME280;10047;42.490;26.012;2023-03-20T13:17:15;98390.69;;;18.75;100.00
19777;BME280;10047;42.490;26.012;2023-03-20T13:22:47;98405.69;;;18.61;100.00
19777;BME280;10047;42.490;26.012;2023-03-20T13:28:04;98343.75;;;18.43;100.00
19777;BME280;10047;42.490;26.012;2023-03-20T13:33:46;98428.78;;;18.81;100.00
19777;BME280;10047;42.490;26.012;2023-03-20T13:38:44;98403.34;;;19.17;100.00
19777;BME280;10047;42.490;26.012;2023-03-20T13:41:12;98431.81;;;18.47;100.00
19777;BME280;10047;42.490;26.012;2023-03-20T13:43:42;98382.16;;;18.94;100.00
19777;BME280;10047;42.490;26.012;2023-03-20T13:46:15;98406.34;;;18.23;100.00
19777;BME280;10047;42.490;26.012;2023-03-20T13:48:43;98401.38;;;18.61;100.00
19777;BME280;10047;42.490;26.012;2023-03-20T14:02:41;98378.09;;;18.42;100.00
19777;BME280;10047;42.490;26.012;2023-03-20T14:05:15;98400.03;;;18.76;100.00
19777;BME280;10047;42.490;26.012;2023-03-20T14:07:45;98399.66;;;19.00;100.00
19777;BME280;10047;42.490;26.012;2023-03-20T14:13:03;98354.38;;;18.88;100.00
19777;BME280;10047;42.490;26.012;2023-03-20T14:15:34;98383.34;;;18.61;100.00
19777;BME280;10047;42.490;26.012;2023-03-20T14:18:06;98370.66;;;18.98;100.00
19777;BME280;10047;42.490;26.012;2023-03-20T14:20:39;98445.47;;;18.87;100.00
19777;BME280;10047;42.490;26.012;2023-03-20T14:23:05;98464.75;;;18.53;100.00
19777;BME280;10047;42.490;26.012;2023-03-20T14:25:39;98439.25;;;18.89;100.00
19777;BME280;10047;42.490;26.012;2023-03-20T14:30:46;98433.22;;;18.70;100.00
19777;BME280;10047;42.490;26.012;2023-03-20T14:35:48;98428.94;;;18.89;100.00
19777;BME280;10047;42.490;26.012;2023-03-20T14:38:23;98426.94;;;19.22;100.00
19777;BME280;10047;42.490;26.012;2023-03-20T14:41:04;98465.66;;;19.41;100.00
19777;BME280;10047;42.490;26.012;2023-03-20T14:49:03;98585.50;;;19.94;100.00
19777;BME280;10047;42.490;26.012;2023-03-20T14:51:47;98502.41;;;19.43;100.00
19777;BME280;10047;42.490;26.012;2023-03-20T14:56:49;98635.13;;;21.01;100.00
19777;BME280;10047;42.490;26.012;2023-03-20T14:59:17;98713.50;;;20.63;100.00
19777;BME280;10047;42.490;26.012;2023-03-20T15:01:59;98589.44;;;19.30;100.00
19777;BME280;10047;42.490;26.012;2023-03-20T15:04:37;98520.88;;;18.98;100.00
19777;BME280;10047;42.490;26.012;2023-03-20T15:07:10;98427.81;;;18.73;100.00
19777;BME280;10047;42.490;26.012;2023-03-20T15:09:41;98484.91;;;19.37;100.00
19777;BME280;10047;42.490;26.012;2023-03-20T15:12:08;98481.84;;;19.03;100.00
19777;BME280;10047;42.490;26.012;2023-03-20T15:14:41;98464.06;;;18.51;100.00
19777;BME280;10047;42.490;26.012;2023-03-20T15:17:16;98462.16;;;18.92;100.00
19777;BME280;10047;42.490;26.012;2023-03-20T15:19:42;98413.28;;;18.62;100.00
19777;BME280;10047;42.490;26.012;2023-03-20T15:22:19;98460.81;;;18.58;100.00
19777;BME280;10047;42.490;26.012;2023-03-20T15:24:55;98424.28;;;18.34;100.00
19777;BME280;10047;42.490;26.012;2023-03-20T15:27:22;98417.59;;;19.40;100.00
19777;BME280;10047;42.490;26.012;2023-03-20T15:29:52;98532.53;;;21.02;100.00